Terminal Aerodrome Forecast
Issued by NWS

Home | Current Version | Previous Version | Text Only | Print | Product List | Glossary On
Versions: 1 2 3 4 5 6 7 8 9 10 11 12 13 14 15 16 17 18 19 20 21 22 23 24 25 26 27 28 29 30 31
000
FTUS43 KSGF 180500
TAFBBG
TAF
KBBG 180520Z 1806/1906 12004KT 1/4SM FG OVC002
     FM180800 VRB03KT 1/4SM FG VCSH OVC002
      TEMPO 1808/1812 2SM -SHRA BR SCT004 OVC008
     FM181200 VRB04KT 1/4SM FG VCSH OVC002
      TEMPO 1812/1815 3SM -SHRA BR SCT004 BKN100
     FM181500 11006KT 5SM BR OVC007
     FM181800 10006KT P6SM SCT030 BKN050=

USA.gov is the U.S. government's official web portal to all federal, state and local government web resources and services.